Air Navigation Services of Czech Republic
Airport: LKCV Updated:  18.07.2019 17:00:30  UTC
 METAR LKCV 18.07. 17:00 ...
METAR LKCV 181700Z 26003KT 210V310 CAVOK 26/10 Q1011 NOSIG RMK BLU BLU=
 TAF LKCV 18.07. 11:00 ...
TAF LKCV 181100Z 1812/1912 30005KT CAVOK      PROB40 TEMPO 1812/1819 31015KT 7000 SHRA BKN040TCU      BECMG 1819/1822 VRB02KT      BECMG 1904/1906 9999 BKN030      TEMPO 1908/1912 8000 RA BKN022=